首页
METAR-TAF:

METAR-TAF

机场 :

金奈国际机场

金奈, 印度

纬度: 13-00N, 经度: 080-11E, 海拔: 10米

当前天气观测

该预报发布于29分钟前的02:00 UTC
风速8节,风向西转西南
温度 29°C
湿度 66%
气压 1004 hPa
能見度: 6000
少量云层高于2000英尺
散云层高于10000英尺

METAR: VOMM 190200Z 24008KT 6000 FEW020 SCT100 29/22 Q1004 NOSIG

时间: 07:59 (02:29 UTC)

预报

该预报发布于3小时和29分钟前的23:00 UTC
预报有效从19日的 00点(UTC)到 20日的 06点(UTC)
风速10节,风向西转西南
能見度: 6000
散云层高于1800英尺
多云层高于10000英尺
短暂存在
从 19日的 03点(UTC)到 19日的 09点(UTC)
风速10节,风向西,有时为20节阵风
成为
从 19日的 12点(UTC)到 19日的 13点(UTC)
风速10节,风向南转南东
成为
从 19日的 18点(UTC)到 19日的 19点(UTC)
风速10节,风向西转西南

TAF: VOMM 182300Z 1900/2006 25010KT 6000 SCT018 BKN100 TEMPO 1903/1909 26010G20KT BECMG 1912/1913 16010KT BECMG 1918/1919 25010KT

超过4000个机场的气象观测和天气预报(METAR&TAF报告)。

可查询的气象台以黄色和红色小点在地图上表示。

将鼠标移到小点上方,可查看气象台名称。

然后点击查看天气观测和预报。

如需切换地图:点击带黑十字的绿色按钮放大地图;点击带横线的绿色按钮缩小地图;或者点击绿色箭头查看邻近地区的地图。


METAR-TAF: